createdAt,value
2023-02-03T00:03:09.269Z,468.80
2023-02-03T00:06:13.618Z,457.90
2023-02-03T00:09:21.948Z,443.61
2023-02-03T00:12:36.027Z,466.02
2023-02-03T00:15:41.238Z,289.23
2023-02-03T00:18:45.056Z,275.02
2023-02-03T00:21:49.470Z,301.83
2023-02-03T00:24:54.222Z,304.83
2023-02-03T00:28:02.981Z,440.27
2023-02-03T00:31:07.299Z,285.25
2023-02-03T00:34:11.532Z,295.77
2023-02-03T00:37:16.892Z,365.75
2023-02-03T00:40:21.740Z,379.80
2023-02-03T00:43:30.623Z,391.38
2023-02-03T00:46:40.204Z,348.08
2023-02-03T00:49:44.452Z,392.30
2023-02-03T00:52:59.331Z,502.70
2023-02-03T00:56:13.046Z,492.25
2023-02-03T00:59:17.194Z,452.65
2023-02-03T01:02:22.628Z,438.13
2023-02-03T01:05:26.407Z,438.38
2023-02-03T01:08:32.767Z,441.60
2023-02-03T01:11:41.516Z,466.73
2023-02-03T01:14:45.891Z,476.45
2023-02-03T01:17:49.589Z,510.50
2023-02-03T01:20:55.952Z,421.50
2023-02-03T01:24:01.244Z,438.08
2023-02-03T01:27:06.708Z,410.58
2023-02-03T01:30:11.560Z,440.40
2023-02-03T01:33:17.264Z,400.92
2023-02-03T01:36:23.841Z,481.30
2023-02-03T01:39:27.819Z,451.58
2023-02-03T01:42:34.508Z,491.05
2023-02-03T01:45:40.505Z,479.90
2023-02-03T01:48:44.815Z,610.95
2023-02-03T01:51:50.294Z,605.45
2023-02-03T01:54:57.401Z,567.13
2023-02-03T01:58:20.125Z,438.85
2023-02-03T02:01:32.425Z,494.80
2023-02-03T02:08:27.976Z,482.25
2023-02-03T02:11:35.216Z,522.97
2023-02-03T02:14:41.427Z,577.50
2023-02-03T02:17:47.586Z,357.30
2023-02-03T02:21:18.241Z,514.28
2023-02-03T02:24:48.737Z,537.88
2023-02-03T02:32:10.076Z,496.50
2023-02-03T02:35:47.488Z,463.10
2023-02-03T02:39:03.978Z,610.13
2023-02-03T02:53:40.951Z,830.03
2023-02-03T02:56:52.185Z,784.42
2023-02-03T03:00:09.295Z,725.10
2023-02-03T03:03:21.475Z,652.15
2023-02-03T03:06:42.074Z,599.50
2023-02-03T03:09:58.307Z,571.78
2023-02-03T03:13:09.571Z,503.77
2023-02-03T03:16:16.709Z,543.95
2023-02-03T03:19:40.344Z,579.78
2023-02-03T03:22:51.992Z,573.42
2023-02-03T03:26:23.773Z,613.65
2023-02-03T03:29:35.663Z,642.45
2023-02-03T03:32:40.788Z,674.33
2023-02-03T03:36:00.585Z,675.05
2023-02-03T03:39:42.374Z,670.97
2023-02-03T03:43:04.346Z,636.95
2023-02-03T03:46:26.645Z,469.35
2023-02-03T03:49:45.217Z,447.45
2023-02-03T03:52:54.259Z,466.17
2023-02-03T03:56:01.283Z,661.53
2023-02-03T03:59:08.963Z,671.03
2023-02-03T04:02:15.071Z,543.22
2023-02-03T04:05:27.022Z,465.80
2023-02-03T04:08:37.834Z,461.70
2023-02-03T04:12:01.259Z,426.88
2023-02-03T04:15:07.215Z,495.52
2023-02-03T04:18:16.472Z,515.75
2023-02-03T04:21:22.327Z,641.25
2023-02-03T04:24:31.916Z,456.50
2023-02-03T04:27:36.669Z,452.48
2023-02-03T04:30:51.927Z,374.42
2023-02-03T04:33:56.637Z,435.60
2023-02-03T04:37:05.897Z,473.48
2023-02-03T04:40:12.365Z,505.55
2023-02-03T04:43:26.577Z,653.63
2023-02-03T04:46:30.944Z,733.80
2023-02-03T04:49:35.824Z,798.70
2023-02-03T04:52:42.113Z,855.85
2023-02-03T04:55:49.866Z,744.55
2023-02-03T04:59:02.027Z,700.00
2023-02-03T05:02:06.712Z,714.37
2023-02-03T05:05:10.797Z,677.50
2023-02-03T05:08:14.541Z,689.83
2023-02-03T05:11:28.243Z,583.63
2023-02-03T05:14:43.111Z,541.38
2023-02-03T05:17:52.472Z,511.15
2023-02-03T05:20:56.058Z,491.77
2023-02-03T05:24:10.667Z,512.67
2023-02-03T05:27:15.128Z,512.45
2023-02-03T05:30:19.723Z,533.83
2023-02-03T05:33:33.593Z,536.90
2023-02-03T05:36:37.747Z,545.90
2023-02-03T05:39:52.073Z,575.53
2023-02-03T05:43:06.205Z,563.08
2023-02-03T05:46:10.927Z,566.35
2023-02-03T05:49:20.537Z,563.03
2023-02-03T05:52:24.631Z,544.58
2023-02-03T05:55:32.972Z,612.45
2023-02-03T05:58:42.647Z,588.75
2023-02-03T06:01:46.939Z,560.45
2023-02-03T06:04:55.505Z,521.88
2023-02-03T06:08:01.800Z,511.15
2023-02-03T06:11:16.641Z,501.20
2023-02-03T06:14:25.508Z,461.55
2023-02-03T06:17:30.298Z,448.60
2023-02-03T06:20:35.356Z,455.48
2023-02-03T06:23:39.919Z,480.20
2023-02-03T06:26:43.782Z,463.85
2023-02-03T06:29:47.524Z,458.75
2023-02-03T06:32:52.464Z,452.87
2023-02-03T06:35:56.417Z,457.65
2023-02-03T06:39:01.229Z,449.38
2023-02-03T06:42:11.531Z,456.13
2023-02-03T06:45:20.339Z,449.25
2023-02-03T06:48:26.773Z,387.40
2023-02-03T06:51:31.287Z,353.45
2023-02-03T06:54:40.850Z,347.70
2023-02-03T06:57:49.465Z,435.65
2023-02-03T07:00:56.963Z,472.50
2023-02-03T07:04:01.451Z,493.63
2023-02-03T07:07:06.401Z,438.30
2023-02-03T07:10:21.556Z,464.50
2023-02-03T07:13:26.750Z,455.33
2023-02-03T07:16:31.756Z,471.10
2023-02-03T07:19:35.388Z,448.25
2023-02-03T07:22:42.809Z,434.85
2023-02-03T07:26:04.957Z,447.02
2023-02-03T07:29:13.932Z,452.27
2023-02-03T07:32:17.620Z,451.13
2023-02-03T07:35:33.444Z,438.33
2023-02-03T07:38:38.695Z,439.67
2023-02-03T07:41:48.500Z,466.73
2023-02-03T07:45:03.360Z,420.77
2023-02-03T07:48:07.335Z,507.90
2023-02-03T07:51:12.120Z,501.02
2023-02-03T07:54:16.738Z,433.90
2023-02-03T07:57:20.318Z,424.02
2023-02-03T08:00:25.089Z,441.33
2023-02-03T08:03:31.063Z,391.98
2023-02-03T08:06:47.075Z,400.92
2023-02-03T08:09:56.342Z,394.15
2023-02-03T08:13:09.790Z,340.48
2023-02-03T08:16:13.709Z,319.55
2023-02-03T08:19:20.038Z,292.50
2023-02-03T08:22:24.215Z,269.10
2023-02-03T08:25:29.910Z,279.33
2023-02-03T08:28:35.469Z,247.48
2023-02-03T08:31:42.880Z,246.77
2023-02-03T08:34:57.319Z,231.32
2023-02-03T08:38:02.614Z,200.00
2023-02-03T08:41:21.320Z,172.10
2023-02-03T08:44:25.468Z,168.25
2023-02-03T08:47:41.236Z,219.60
2023-02-03T08:50:52.382Z,344.63
2023-02-03T08:53:56.887Z,329.13
2023-02-03T08:57:11.415Z,311.05
2023-02-03T09:00:20.742Z,296.45
2023-02-03T09:03:24.677Z,299.88
2023-02-03T09:06:30.603Z,293.33
2023-02-03T09:09:44.844Z,253.75
2023-02-03T09:12:49.899Z,218.13
2023-02-03T09:15:54.775Z,239.40
2023-02-03T09:18:58.639Z,204.60
2023-02-03T09:22:15.725Z,228.75
2023-02-03T09:25:24.876Z,188.48
2023-02-03T09:28:29.041Z,168.32
2023-02-03T09:31:37.805Z,168.85
2023-02-03T09:34:42.279Z,143.27
2023-02-03T09:37:47.658Z,148.85
2023-02-03T09:44:46.634Z,126.13
2023-02-03T09:47:55.677Z,123.78
2023-02-03T09:51:21.433Z,121.30
2023-02-03T09:54:40.473Z,127.32
2023-02-03T09:58:20.028Z,111.75
2023-02-03T10:01:54.678Z,98.32
2023-02-03T10:05:21.230Z,101.50
2023-02-03T10:09:00.610Z,78.80
2023-02-03T10:12:20.447Z,71.68
2023-02-03T10:15:36.584Z,69.05
2023-02-03T10:18:52.955Z,64.57
2023-02-03T10:22:04.362Z,59.30
2023-02-03T10:25:15.236Z,61.88
2023-02-03T10:28:23.288Z,52.15
2023-02-03T10:31:29.253Z,76.93
2023-02-03T10:34:33.887Z,50.78
2023-02-03T10:37:45.962Z,116.75
2023-02-03T10:40:50.956Z,143.35
2023-02-03T10:44:10.204Z,114.50
2023-02-03T10:47:20.774Z,70.63
2023-02-03T10:50:32.093Z,55.47
2023-02-03T10:53:38.170Z,60.35
2023-02-03T10:56:47.344Z,54.13
2023-02-03T10:59:51.548Z,62.88
2023-02-03T11:02:57.976Z,54.63
2023-02-03T11:06:17.041Z,68.85
2023-02-03T11:09:33.852Z,57.72
2023-02-03T11:12:37.987Z,65.60
2023-02-03T11:16:27.412Z,66.93
2023-02-03T11:19:32.419Z,93.95
2023-02-03T11:22:40.695Z,49.05
2023-02-03T11:25:45.421Z,311.15
2023-02-03T11:28:52.843Z,122.10
2023-02-03T11:32:01.083Z,90.97
2023-02-03T11:35:24.333Z,69.80
2023-02-03T11:38:33.765Z,64.53
2023-02-03T11:41:49.698Z,144.27
2023-02-03T11:45:26.158Z,106.03
2023-02-03T11:48:45.351Z,158.38
2023-02-03T11:52:15.365Z,212.63
2023-02-03T11:55:27.784Z,252.25
2023-02-03T11:58:59.661Z,285.08
2023-02-03T12:02:25.082Z,294.90
2023-02-03T12:05:41.771Z,324.92
2023-02-03T12:08:48.590Z,337.05
2023-02-03T12:12:38.598Z,326.23
2023-02-03T12:16:32.354Z,336.67
2023-02-03T12:20:17.408Z,265.10
2023-02-03T12:23:48.952Z,400.75
2023-02-03T12:27:12.987Z,418.05
2023-02-03T12:30:37.754Z,392.05
2023-02-03T12:33:57.965Z,428.83
2023-02-03T12:37:19.625Z,273.17
2023-02-03T12:40:34.859Z,589.05
2023-02-03T12:43:51.082Z,507.23
2023-02-03T12:47:12.276Z,332.02
2023-02-03T12:50:46.365Z,223.63
2023-02-03T12:54:12.936Z,194.60
2023-02-03T12:57:25.340Z,306.83
2023-02-03T13:00:50.808Z,274.55
2023-02-03T13:04:30.053Z,286.63
2023-02-03T13:07:51.966Z,209.85
2023-02-03T13:11:25.577Z,400.25
2023-02-03T13:18:35.233Z,520.90
2023-02-03T13:21:39.319Z,498.27
2023-02-03T13:24:55.503Z,458.63
2023-02-03T13:28:06.889Z,444.15
2023-02-03T13:31:42.039Z,420.80
2023-02-03T13:35:33.195Z,472.42
2023-02-03T13:42:59.920Z,479.50
2023-02-03T13:46:33.848Z,186.25
2023-02-03T13:49:38.075Z,240.48
2023-02-03T13:53:05.072Z,207.95
2023-02-03T13:56:17.342Z,137.82
2023-02-03T13:59:45.948Z,291.10
2023-02-03T14:02:55.491Z,402.67
2023-02-03T14:06:02.138Z,480.77
2023-02-03T14:09:24.469Z,678.88
2023-02-03T14:12:34.567Z,491.45
2023-02-03T14:15:40.055Z,435.15
2023-02-03T14:18:48.006Z,362.90
2023-02-03T14:22:05.537Z,401.30
2023-02-03T14:25:19.565Z,375.60
2023-02-03T14:28:39.480Z,442.63
2023-02-03T14:31:57.569Z,349.83
2023-02-03T14:35:02.014Z,576.37
2023-02-03T14:38:14.944Z,444.83
2023-02-03T14:41:30.807Z,522.97
2023-02-03T14:45:07.726Z,462.42
2023-02-03T14:48:49.430Z,490.35
2023-02-03T14:52:08.133Z,469.15
2023-02-03T14:55:45.781Z,548.40
2023-02-03T14:58:56.965Z,603.33
2023-02-03T15:02:04.358Z,594.70
2023-02-03T15:05:14.980Z,630.38
2023-02-03T15:08:37.810Z,557.08
2023-02-03T15:11:50.743Z,556.72
2023-02-03T15:14:54.827Z,538.38
2023-02-03T15:18:20.157Z,706.42
2023-02-03T15:21:25.331Z,442.23
2023-02-03T15:24:39.956Z,486.50
2023-02-03T15:27:43.988Z,529.53
2023-02-03T15:31:38.166Z,451.50
2023-02-03T15:34:45.570Z,677.83
2023-02-03T15:37:57.129Z,644.88
2023-02-03T15:41:02.240Z,545.33
2023-02-03T15:44:28.554Z,512.75
2023-02-03T15:47:39.709Z,581.40
2023-02-03T15:51:01.074Z,426.17
2023-02-03T15:54:53.152Z,367.85
2023-02-03T15:58:04.431Z,319.98
2023-02-03T16:01:18.053Z,221.13
2023-02-03T16:04:34.308Z,306.90
2023-02-03T16:07:38.646Z,208.48
2023-02-03T16:10:48.505Z,360.67
2023-02-03T16:14:12.785Z,358.77
2023-02-03T16:17:28.859Z,335.77
2023-02-03T16:20:34.010Z,383.92
2023-02-03T16:23:38.712Z,342.90
2023-02-03T16:26:43.392Z,333.50
2023-02-03T16:30:06.216Z,331.10
2023-02-03T16:33:29.651Z,302.25
2023-02-03T16:37:03.897Z,401.15
2023-02-03T16:40:33.679Z,296.65
2023-02-03T16:43:56.360Z,354.63
2023-02-03T16:47:19.788Z,432.38
2023-02-03T16:50:44.226Z,264.92
2023-02-03T16:53:53.838Z,219.65
2023-02-03T16:56:58.890Z,280.88
2023-02-03T17:00:06.183Z,285.38
2023-02-03T17:03:19.622Z,172.90
2023-02-03T17:06:34.565Z,148.65
2023-02-03T17:09:39.089Z,82.18
2023-02-03T17:12:43.518Z,73.10
2023-02-03T17:15:53.348Z,75.63
2023-02-03T17:18:57.797Z,67.43
2023-02-03T17:22:01.329Z,64.57
2023-02-03T17:25:06.315Z,63.40
2023-02-03T17:28:20.715Z,61.78
2023-02-03T17:31:24.635Z,58.77
2023-02-03T17:34:35.246Z,63.72
2023-02-03T17:37:39.389Z,71.65
2023-02-03T17:54:30.209Z,163.73
2023-02-03T17:57:37.945Z,196.23
2023-02-03T18:00:52.412Z,189.13
2023-02-03T18:04:06.763Z,178.40
2023-02-03T18:07:11.194Z,174.07
2023-02-03T18:10:15.239Z,247.30
2023-02-03T18:13:19.230Z,173.05
2023-02-03T18:16:26.902Z,155.75
2023-02-03T18:19:31.413Z,175.25
2023-02-03T18:22:35.167Z,166.70
2023-02-03T18:25:44.394Z,150.20
2023-02-03T18:28:54.256Z,130.95
2023-02-03T18:32:08.133Z,131.55
2023-02-03T18:35:17.277Z,129.90
2023-02-03T18:38:20.986Z,135.43
2023-02-03T18:41:26.227Z,117.72
2023-02-03T18:44:41.743Z,104.07
2023-02-03T18:47:57.363Z,109.45
2023-02-03T18:51:13.728Z,114.88
2023-02-03T18:54:19.869Z,136.48
2023-02-03T18:57:26.527Z,155.77
2023-02-03T19:00:43.889Z,149.63
2023-02-03T19:04:00.394Z,175.82
2023-02-03T19:07:04.907Z,219.85
2023-02-03T19:10:09.239Z,133.50
2023-02-03T19:13:20.449Z,235.40
2023-02-03T19:16:31.377Z,254.38
2023-02-03T19:19:35.333Z,243.68
2023-02-03T19:22:39.296Z,244.57
2023-02-03T19:25:44.173Z,265.17
2023-02-03T19:28:49.361Z,221.05
2023-02-03T19:31:58.872Z,209.07
2023-02-03T19:35:03.288Z,202.68
2023-02-03T19:38:13.439Z,190.07
2023-02-03T19:41:19.471Z,210.35
2023-02-03T19:44:23.667Z,177.05
2023-02-03T19:47:27.729Z,162.23
2023-02-03T19:50:31.781Z,160.65
2023-02-03T19:53:37.016Z,141.38
2023-02-03T19:56:46.838Z,144.40
2023-02-03T19:59:51.703Z,150.32
2023-02-03T20:02:55.934Z,139.64
2023-02-03T20:06:01.152Z,250.63
2023-02-03T20:09:07.089Z,311.80
2023-02-03T20:12:12.701Z,180.85
2023-02-03T20:15:17.249Z,204.25
2023-02-03T20:18:24.942Z,232.35
2023-02-03T20:21:35.601Z,196.05
2023-02-03T20:24:45.264Z,255.98
2023-02-03T20:27:55.669Z,206.18
2023-02-03T20:31:01.999Z,163.57
2023-02-03T20:34:16.025Z,80.15
2023-02-03T20:37:20.373Z,215.30
2023-02-03T20:40:26.895Z,138.70
2023-02-03T20:43:32.333Z,311.70
2023-02-03T20:46:37.779Z,329.15
2023-02-03T20:49:42.136Z,151.85
2023-02-03T20:52:52.750Z,143.10
2023-02-03T20:56:00.563Z,153.43
2023-02-03T20:59:04.822Z,167.30
2023-02-03T21:02:34.162Z,210.80
2023-02-03T21:05:42.437Z,206.77
2023-02-03T21:08:48.338Z,170.55
2023-02-03T21:11:57.911Z,135.07
2023-02-03T21:15:01.651Z,201.20
2023-02-03T21:18:39.622Z,191.15
2023-02-03T21:21:53.690Z,167.60
2023-02-03T21:25:29.154Z,233.02
2023-02-03T21:28:33.383Z,232.55
2023-02-03T21:31:38.660Z,217.75
2023-02-03T21:34:44.859Z,191.20
2023-02-03T21:37:49.476Z,169.23
2023-02-03T21:40:53.600Z,209.13
2023-02-03T21:43:58.949Z,166.07
2023-02-03T21:47:16.955Z,122.70
2023-02-03T21:50:33.077Z,117.05
2023-02-03T21:53:39.162Z,126.38
2023-02-03T21:56:43.511Z,130.70
2023-02-03T21:59:54.429Z,113.97
2023-02-03T22:03:02.776Z,116.13
2023-02-03T22:06:10.110Z,154.55
2023-02-03T22:09:24.272Z,142.27
2023-02-03T22:12:33.045Z,96.55
2023-02-03T22:15:40.741Z,104.15
2023-02-03T22:18:55.256Z,90.03
2023-02-03T22:21:58.974Z,95.75
2023-02-03T22:25:02.815Z,96.57
2023-02-03T22:28:08.927Z,111.75
2023-02-03T22:31:17.753Z,123.00
2023-02-03T22:34:22.325Z,135.40
2023-02-03T22:37:26.324Z,142.60
2023-02-03T22:40:30.612Z,138.60
2023-02-03T22:43:41.215Z,145.65
2023-02-03T22:46:45.404Z,128.85
2023-02-03T22:49:49.273Z,128.63
2023-02-03T22:52:54.633Z,158.60
2023-02-03T22:56:03.741Z,147.40
2023-02-03T22:59:12.941Z,137.38
2023-02-03T23:02:17.302Z,132.35
2023-02-03T23:05:21.786Z,125.55
2023-02-03T23:08:25.952Z,121.60
2023-02-03T23:11:29.591Z,107.65
2023-02-03T23:14:34.303Z,110.00
2023-02-03T23:17:38.142Z,113.22
2023-02-03T23:20:52.861Z,115.90
2023-02-03T23:23:56.899Z,107.72
2023-02-03T23:27:00.578Z,115.30
2023-02-03T23:30:15.810Z,109.85
2023-02-03T23:33:29.888Z,115.60
2023-02-03T23:36:34.650Z,102.90
2023-02-03T23:39:38.259Z,105.43
2023-02-03T23:42:43.872Z,106.10
2023-02-03T23:45:47.989Z,98.75
2023-02-03T23:48:57.760Z,97.50
2023-02-03T23:52:02.491Z,99.30
2023-02-03T23:55:13.815Z,106.40
2023-02-03T23:58:17.683Z,107.32
